sensor_id;sensor_type;location;lat;lon;timestamp;P1;durP1;ratioP1;P2;durP2;ratioP2
43670;SDS011;29267;50.906;7.248;2023-02-24T00:01:01;52.28;;;17.92;;
43670;SDS011;29267;50.906;7.248;2023-02-24T00:03:36;48.30;;;16.23;;
43670;SDS011;29267;50.906;7.248;2023-02-24T00:06:02;61.03;;;18.40;;
43670;SDS011;29267;50.906;7.248;2023-02-24T00:08:35;41.95;;;16.05;;
43670;SDS011;29267;50.906;7.248;2023-02-24T00:11:06;45.40;;;16.85;;
43670;SDS011;29267;50.906;7.248;2023-02-24T00:13:33;47.50;;;16.05;;
43670;SDS011;29267;50.906;7.248;2023-02-24T00:16:00;46.58;;;17.13;;
43670;SDS011;29267;50.906;7.248;2023-02-24T00:18:29;45.50;;;16.80;;
43670;SDS011;29267;50.906;7.248;2023-02-24T00:21:03;42.90;;;15.60;;
43670;SDS011;29267;50.906;7.248;2023-02-24T00:23:37;43.90;;;16.77;;
43670;SDS011;29267;50.906;7.248;2023-02-24T00:26:04;41.38;;;16.27;;
43670;SDS011;29267;50.906;7.248;2023-02-24T00:28:31;42.13;;;15.32;;
43670;SDS011;29267;50.906;7.248;2023-02-24T00:31:03;43.13;;;15.93;;
43670;SDS011;29267;50.906;7.248;2023-02-24T00:33:31;50.72;;;16.23;;
43670;SDS011;29267;50.906;7.248;2023-02-24T00:36:11;48.80;;;16.50;;
43670;SDS011;29267;50.906;7.248;2023-02-24T00:38:39;41.85;;;15.65;;
43670;SDS011;29267;50.906;7.248;2023-02-24T00:43:38;41.60;;;16.10;;
43670;SDS011;29267;50.906;7.248;2023-02-24T00:46:04;52.10;;;18.02;;
43670;SDS011;29267;50.906;7.248;2023-02-24T00:48:35;51.03;;;16.88;;
43670;SDS011;29267;50.906;7.248;2023-02-24T00:51:04;48.92;;;18.65;;
43670;SDS011;29267;50.906;7.248;2023-02-24T00:53:31;43.20;;;16.08;;
43670;SDS011;29267;50.906;7.248;2023-02-24T00:55:58;41.97;;;16.08;;
43670;SDS011;29267;50.906;7.248;2023-02-24T00:58:24;62.97;;;20.08;;
43670;SDS011;29267;50.906;7.248;2023-02-24T01:00:54;54.78;;;19.60;;
43670;SDS011;29267;50.906;7.248;2023-02-24T01:03:21;52.97;;;20.52;;
43670;SDS011;29267;50.906;7.248;2023-02-24T01:05:46;50.50;;;19.17;;
43670;SDS011;29267;50.906;7.248;2023-02-24T01:08:12;53.47;;;19.65;;
43670;SDS011;29267;50.906;7.248;2023-02-24T01:10:47;51.15;;;19.92;;
43670;SDS011;29267;50.906;7.248;2023-02-24T01:13:42;48.92;;;20.13;;
43670;SDS011;29267;50.906;7.248;2023-02-24T01:16:08;41.78;;;17.88;;
43670;SDS011;29267;50.906;7.248;2023-02-24T01:18:34;41.00;;;16.95;;
43670;SDS011;29267;50.906;7.248;2023-02-24T01:20:59;58.22;;;18.38;;
43670;SDS011;29267;50.906;7.248;2023-02-24T01:23:25;43.60;;;17.23;;
43670;SDS011;29267;50.906;7.248;2023-02-24T01:25:51;47.08;;;19.05;;
43670;SDS011;29267;50.906;7.248;2023-02-24T01:28:17;42.08;;;17.88;;
43670;SDS011;29267;50.906;7.248;2023-02-24T01:30:43;45.05;;;19.23;;
43670;SDS011;29267;50.906;7.248;2023-02-24T01:33:09;44.60;;;17.88;;
43670;SDS011;29267;50.906;7.248;2023-02-24T01:35:39;53.55;;;19.33;;
43670;SDS011;29267;50.906;7.248;2023-02-24T01:38:05;53.65;;;21.15;;
43670;SDS011;29267;50.906;7.248;2023-02-24T01:40:31;48.17;;;19.90;;
43670;SDS011;29267;50.906;7.248;2023-02-24T01:42:56;54.13;;;21.17;;
43670;SDS011;29267;50.906;7.248;2023-02-24T01:45:26;43.60;;;20.60;;
43670;SDS011;29267;50.906;7.248;2023-02-24T01:47:57;54.97;;;23.58;;
43670;SDS011;29267;50.906;7.248;2023-02-24T01:50:25;53.83;;;22.70;;
43670;SDS011;29267;50.906;7.248;2023-02-24T01:52:54;63.97;;;23.65;;
43670;SDS011;29267;50.906;7.248;2023-02-24T01:55:23;67.57;;;24.58;;
43670;SDS011;29267;50.906;7.248;2023-02-24T02:00:24;64.15;;;24.38;;
43670;SDS011;29267;50.906;7.248;2023-02-24T02:03:02;59.70;;;22.05;;
43670;SDS011;29267;50.906;7.248;2023-02-24T02:05:36;68.25;;;26.40;;
43670;SDS011;29267;50.906;7.248;2023-02-24T02:08:03;59.08;;;22.63;;
43670;SDS011;29267;50.906;7.248;2023-02-24T02:10:29;71.93;;;25.35;;
43670;SDS011;29267;50.906;7.248;2023-02-24T02:12:55;64.78;;;25.65;;
43670;SDS011;29267;50.906;7.248;2023-02-24T02:15:21;65.55;;;25.92;;
43670;SDS011;29267;50.906;7.248;2023-02-24T02:23:20;60.70;;;24.25;;
43670;SDS011;29267;50.906;7.248;2023-02-24T02:34:51;64.10;;;26.35;;
43670;SDS011;29267;50.906;7.248;2023-02-24T02:37:35;70.35;;;26.98;;
43670;SDS011;29267;50.906;7.248;2023-02-24T02:43:38;50.00;;;22.42;;
43670;SDS011;29267;50.906;7.248;2023-02-24T02:46:14;50.10;;;19.33;;
43670;SDS011;29267;50.906;7.248;2023-02-24T02:48:54;44.20;;;19.45;;
43670;SDS011;29267;50.906;7.248;2023-02-24T02:51:28;44.10;;;17.85;;
43670;SDS011;29267;50.906;7.248;2023-02-24T02:56:35;35.25;;;16.80;;
43670;SDS011;29267;50.906;7.248;2023-02-24T02:59:06;39.92;;;16.15;;
43670;SDS011;29267;50.906;7.248;2023-02-24T03:01:36;36.08;;;15.00;;
43670;SDS011;29267;50.906;7.248;2023-02-24T03:04:06;31.63;;;14.23;;
43670;SDS011;29267;50.906;7.248;2023-02-24T03:06:34;34.65;;;14.27;;
43670;SDS011;29267;50.906;7.248;2023-02-24T03:09:09;40.35;;;16.10;;
43670;SDS011;29267;50.906;7.248;2023-02-24T03:11:42;38.92;;;13.80;;
43670;SDS011;29267;50.906;7.248;2023-02-24T03:14:13;30.17;;;13.25;;
43670;SDS011;29267;50.906;7.248;2023-02-24T03:16:41;38.00;;;14.63;;
43670;SDS011;29267;50.906;7.248;2023-02-24T03:19:10;30.27;;;13.32;;
43670;SDS011;29267;50.906;7.248;2023-02-24T03:21:43;29.83;;;13.45;;
43670;SDS011;29267;50.906;7.248;2023-02-24T03:24:10;30.98;;;13.43;;
43670;SDS011;29267;50.906;7.248;2023-02-24T03:26:39;34.28;;;13.77;;
43670;SDS011;29267;50.906;7.248;2023-02-24T03:29:26;42.72;;;13.85;;
43670;SDS011;29267;50.906;7.248;2023-02-24T03:32:35;39.40;;;13.48;;
43670;SDS011;29267;50.906;7.248;2023-02-24T03:35:05;38.80;;;13.93;;
43670;SDS011;29267;50.906;7.248;2023-02-24T03:37:35;33.28;;;13.27;;
43670;SDS011;29267;50.906;7.248;2023-02-24T03:40:02;38.83;;;12.88;;
43670;SDS011;29267;50.906;7.248;2023-02-24T03:42:35;36.85;;;14.63;;
43670;SDS011;29267;50.906;7.248;2023-02-24T03:45:05;39.38;;;12.27;;
43670;SDS011;29267;50.906;7.248;2023-02-24T03:47:31;38.25;;;14.93;;
43670;SDS011;29267;50.906;7.248;2023-02-24T03:49:57;34.38;;;13.55;;
43670;SDS011;29267;50.906;7.248;2023-02-24T03:55:11;35.97;;;13.45;;
43670;SDS011;29267;50.906;7.248;2023-02-24T04:06:03;35.35;;;14.35;;
43670;SDS011;29267;50.906;7.248;2023-02-24T04:11:35;40.38;;;13.20;;
43670;SDS011;29267;50.906;7.248;2023-02-24T04:14:08;46.75;;;16.10;;
43670;SDS011;29267;50.906;7.248;2023-02-24T04:16:47;45.63;;;15.60;;
43670;SDS011;29267;50.906;7.248;2023-02-24T04:19:20;43.72;;;16.65;;
43670;SDS011;29267;50.906;7.248;2023-02-24T04:21:48;47.80;;;17.65;;
43670;SDS011;29267;50.906;7.248;2023-02-24T04:24:16;53.35;;;18.30;;
43670;SDS011;29267;50.906;7.248;2023-02-24T04:26:44;56.05;;;18.30;;
43670;SDS011;29267;50.906;7.248;2023-02-24T04:29:12;47.13;;;19.60;;
43670;SDS011;29267;50.906;7.248;2023-02-24T04:31:47;66.38;;;20.55;;
43670;SDS011;29267;50.906;7.248;2023-02-24T04:34:17;70.32;;;23.60;;
43670;SDS011;29267;50.906;7.248;2023-02-24T04:36:44;55.00;;;19.25;;
43670;SDS011;29267;50.906;7.248;2023-02-24T04:39:14;60.53;;;20.98;;
43670;SDS011;29267;50.906;7.248;2023-02-24T04:41:45;47.42;;;18.58;;
43670;SDS011;29267;50.906;7.248;2023-02-24T04:44:13;53.90;;;18.73;;
43670;SDS011;29267;50.906;7.248;2023-02-24T04:46:41;44.83;;;19.35;;
43670;SDS011;29267;50.906;7.248;2023-02-24T04:49:08;45.88;;;16.15;;
43670;SDS011;29267;50.906;7.248;2023-02-24T04:51:34;40.90;;;16.58;;
43670;SDS011;29267;50.906;7.248;2023-02-24T04:54:00;56.90;;;17.33;;
43670;SDS011;29267;50.906;7.248;2023-02-24T04:56:27;49.33;;;16.33;;
43670;SDS011;29267;50.906;7.248;2023-02-24T04:58:53;46.03;;;15.73;;
43670;SDS011;29267;50.906;7.248;2023-02-24T05:01:19;46.05;;;15.57;;
43670;SDS011;29267;50.906;7.248;2023-02-24T05:03:44;34.30;;;14.02;;
43670;SDS011;29267;50.906;7.248;2023-02-24T05:06:15;39.95;;;14.30;;
43670;SDS011;29267;50.906;7.248;2023-02-24T05:08:41;39.65;;;13.68;;
43670;SDS011;29267;50.906;7.248;2023-02-24T05:11:11;43.53;;;14.50;;
43670;SDS011;29267;50.906;7.248;2023-02-24T05:13:40;45.60;;;13.32;;
43670;SDS011;29267;50.906;7.248;2023-02-24T05:16:10;37.17;;;11.88;;
43670;SDS011;29267;50.906;7.248;2023-02-24T05:18:37;37.17;;;14.20;;
43670;SDS011;29267;50.906;7.248;2023-02-24T05:21:04;39.22;;;12.13;;
43670;SDS011;29267;50.906;7.248;2023-02-24T05:23:53;33.25;;;11.20;;
43670;SDS011;29267;50.906;7.248;2023-02-24T05:26:20;35.40;;;12.35;;
43670;SDS011;29267;50.906;7.248;2023-02-24T05:28:48;32.92;;;11.45;;
43670;SDS011;29267;50.906;7.248;2023-02-24T05:31:17;37.13;;;11.60;;
43670;SDS011;29267;50.906;7.248;2023-02-24T05:33:45;30.27;;;9.43;;
43670;SDS011;29267;50.906;7.248;2023-02-24T05:36:16;28.63;;;9.13;;
43670;SDS011;29267;50.906;7.248;2023-02-24T05:38:43;38.17;;;8.82;;
43670;SDS011;29267;50.906;7.248;2023-02-24T05:41:11;33.30;;;10.32;;
43670;SDS011;29267;50.906;7.248;2023-02-24T05:43:48;38.25;;;10.00;;
43670;SDS011;29267;50.906;7.248;2023-02-24T05:46:23;29.88;;;8.57;;
43670;SDS011;29267;50.906;7.248;2023-02-24T05:48:56;31.92;;;7.88;;
43670;SDS011;29267;50.906;7.248;2023-02-24T05:51:24;32.38;;;6.43;;
43670;SDS011;29267;50.906;7.248;2023-02-24T05:54:01;39.92;;;8.80;;
43670;SDS011;29267;50.906;7.248;2023-02-24T05:56:29;25.08;;;6.18;;
43670;SDS011;29267;50.906;7.248;2023-02-24T05:58:59;20.85;;;6.30;;
43670;SDS011;29267;50.906;7.248;2023-02-24T06:01:34;23.38;;;6.93;;
43670;SDS011;29267;50.906;7.248;2023-02-24T06:04:03;21.23;;;5.68;;
43670;SDS011;29267;50.906;7.248;2023-02-24T06:06:33;21.63;;;5.43;;
43670;SDS011;29267;50.906;7.248;2023-02-24T06:09:02;16.33;;;5.22;;
43670;SDS011;29267;50.906;7.248;2023-02-24T06:11:34;25.95;;;5.65;;
43670;SDS011;29267;50.906;7.248;2023-02-24T06:14:07;33.38;;;5.53;;
43670;SDS011;29267;50.906;7.248;2023-02-24T06:16:34;19.88;;;5.63;;
43670;SDS011;29267;50.906;7.248;2023-02-24T06:19:01;24.90;;;8.68;;
43670;SDS011;29267;50.906;7.248;2023-02-24T06:21:29;30.65;;;6.20;;
43670;SDS011;29267;50.906;7.248;2023-02-24T06:23:55;29.58;;;6.35;;
43670;SDS011;29267;50.906;7.248;2023-02-24T06:26:25;22.55;;;5.50;;
43670;SDS011;29267;50.906;7.248;2023-02-24T06:28:53;28.30;;;6.15;;
43670;SDS011;29267;50.906;7.248;2023-02-24T06:31:20;22.83;;;5.22;;
43670;SDS011;29267;50.906;7.248;2023-02-24T06:33:45;30.25;;;6.57;;
43670;SDS011;29267;50.906;7.248;2023-02-24T06:36:12;26.13;;;5.95;;
43670;SDS011;29267;50.906;7.248;2023-02-24T06:38:40;32.70;;;6.22;;
43670;SDS011;29267;50.906;7.248;2023-02-24T06:41:06;29.42;;;6.72;;
43670;SDS011;29267;50.906;7.248;2023-02-24T06:43:39;30.08;;;6.22;;
43670;SDS011;29267;50.906;7.248;2023-02-24T06:46:07;28.42;;;7.65;;
43670;SDS011;29267;50.906;7.248;2023-02-24T06:48:33;22.92;;;6.20;;
43670;SDS011;29267;50.906;7.248;2023-02-24T06:51:06;34.30;;;7.00;;
43670;SDS011;29267;50.906;7.248;2023-02-24T06:53:34;23.38;;;5.20;;
43670;SDS011;29267;50.906;7.248;2023-02-24T06:56:07;29.48;;;5.88;;
43670;SDS011;29267;50.906;7.248;2023-02-24T06:58:44;22.88;;;5.25;;
43670;SDS011;29267;50.906;7.248;2023-02-24T07:01:15;21.55;;;5.70;;
43670;SDS011;29267;50.906;7.248;2023-02-24T07:03:44;27.98;;;5.80;;
43670;SDS011;29267;50.906;7.248;2023-02-24T07:06:27;25.92;;;5.88;;
43670;SDS011;29267;50.906;7.248;2023-02-24T07:08:58;21.70;;;5.43;;
43670;SDS011;29267;50.906;7.248;2023-02-24T07:11:26;38.78;;;5.80;;
43670;SDS011;29267;50.906;7.248;2023-02-24T07:13:52;16.10;;;4.50;;
43670;SDS011;29267;50.906;7.248;2023-02-24T07:16:19;20.33;;;5.40;;
43670;SDS011;29267;50.906;7.248;2023-02-24T07:18:51;19.45;;;4.40;;
43670;SDS011;29267;50.906;7.248;2023-02-24T07:21:21;20.27;;;5.10;;
43670;SDS011;29267;50.906;7.248;2023-02-24T07:23:49;13.05;;;4.57;;
43670;SDS011;29267;50.906;7.248;2023-02-24T07:26:20;21.05;;;5.25;;
43670;SDS011;29267;50.906;7.248;2023-02-24T07:28:48;26.60;;;6.15;;
43670;SDS011;29267;50.906;7.248;2023-02-24T07:31:15;23.75;;;4.32;;
43670;SDS011;29267;50.906;7.248;2023-02-24T07:33:43;20.67;;;5.30;;
43670;SDS011;29267;50.906;7.248;2023-02-24T07:36:11;22.23;;;4.28;;
43670;SDS011;29267;50.906;7.248;2023-02-24T07:38:42;17.73;;;4.05;;
43670;SDS011;29267;50.906;7.248;2023-02-24T07:41:09;36.00;;;5.53;;
43670;SDS011;29267;50.906;7.248;2023-02-24T07:43:37;20.52;;;4.95;;
43670;SDS011;29267;50.906;7.248;2023-02-24T07:46:07;24.90;;;4.43;;
43670;SDS011;29267;50.906;7.248;2023-02-24T07:48:36;16.67;;;4.88;;
43670;SDS011;29267;50.906;7.248;2023-02-24T07:51:15;21.75;;;5.53;;
43670;SDS011;29267;50.906;7.248;2023-02-24T07:53:42;22.23;;;4.65;;
43670;SDS011;29267;50.906;7.248;2023-02-24T07:56:12;21.08;;;4.50;;
43670;SDS011;29267;50.906;7.248;2023-02-24T07:58:39;24.13;;;5.25;;
43670;SDS011;29267;50.906;7.248;2023-02-24T08:01:06;25.00;;;4.18;;
43670;SDS011;29267;50.906;7.248;2023-02-24T08:03:33;22.17;;;5.20;;
43670;SDS011;29267;50.906;7.248;2023-02-24T08:06:02;21.83;;;4.70;;
43670;SDS011;29267;50.906;7.248;2023-02-24T08:08:39;27.30;;;6.18;;
43670;SDS011;29267;50.906;7.248;2023-02-24T08:11:30;29.17;;;6.80;;
43670;SDS011;29267;50.906;7.248;2023-02-24T08:14:02;17.90;;;5.50;;
43670;SDS011;29267;50.906;7.248;2023-02-24T08:16:38;20.33;;;5.35;;
43670;SDS011;29267;50.906;7.248;2023-02-24T08:19:08;33.95;;;6.88;;
43670;SDS011;29267;50.906;7.248;2023-02-24T08:21:39;21.25;;;5.82;;
43670;SDS011;29267;50.906;7.248;2023-02-24T08:24:12;29.52;;;6.07;;
43670;SDS011;29267;50.906;7.248;2023-02-24T08:26:51;28.38;;;6.35;;
43670;SDS011;29267;50.906;7.248;2023-02-24T08:29:34;13.85;;;4.18;;
43670;SDS011;29267;50.906;7.248;2023-02-24T08:32:07;25.40;;;5.03;;
43670;SDS011;29267;50.906;7.248;2023-02-24T08:34:37;21.45;;;4.05;;
43670;SDS011;29267;50.906;7.248;2023-02-24T08:37:03;19.13;;;5.05;;
43670;SDS011;29267;50.906;7.248;2023-02-24T08:39:29;31.15;;;4.15;;
43670;SDS011;29267;50.906;7.248;2023-02-24T08:41:58;16.13;;;4.22;;
43670;SDS011;29267;50.906;7.248;2023-02-24T08:44:24;24.02;;;5.40;;
43670;SDS011;29267;50.906;7.248;2023-02-24T08:46:51;20.58;;;4.53;;
43670;SDS011;29267;50.906;7.248;2023-02-24T08:49:18;12.98;;;4.50;;
43670;SDS011;29267;50.906;7.248;2023-02-24T08:51:45;20.98;;;5.05;;
43670;SDS011;29267;50.906;7.248;2023-02-24T08:54:17;21.70;;;5.05;;
43670;SDS011;29267;50.906;7.248;2023-02-24T08:56:51;17.35;;;4.85;;
43670;SDS011;29267;50.906;7.248;2023-02-24T08:59:20;17.58;;;3.92;;
43670;SDS011;29267;50.906;7.248;2023-02-24T09:07:16;16.25;;;2.88;;
43670;SDS011;29267;50.906;7.248;2023-02-24T09:09:44;14.32;;;2.92;;
43670;SDS011;29267;50.906;7.248;2023-02-24T09:12:11;16.70;;;3.72;;
43670;SDS011;29267;50.906;7.248;2023-02-24T09:14:49;13.77;;;2.90;;
43670;SDS011;29267;50.906;7.248;2023-02-24T09:17:20;11.38;;;2.22;;
43670;SDS011;29267;50.906;7.248;2023-02-24T09:20:04;12.07;;;2.58;;
43670;SDS011;29267;50.906;7.248;2023-02-24T09:22:59;19.98;;;3.25;;
43670;SDS011;29267;50.906;7.248;2023-02-24T09:25:31;14.98;;;3.35;;
43670;SDS011;29267;50.906;7.248;2023-02-24T09:30:34;19.13;;;2.88;;
43670;SDS011;29267;50.906;7.248;2023-02-24T09:33:57;17.30;;;3.45;;
43670;SDS011;29267;50.906;7.248;2023-02-24T09:36:06;20.60;;;3.25;;
43670;SDS011;29267;50.906;7.248;2023-02-24T09:38:47;13.77;;;2.80;;
43670;SDS011;29267;50.906;7.248;2023-02-24T09:41:43;12.25;;;2.50;;
43670;SDS011;29267;50.906;7.248;2023-02-24T09:44:39;16.67;;;3.13;;
43670;SDS011;29267;50.906;7.248;2023-02-24T09:49:59;21.80;;;4.18;;
43670;SDS011;29267;50.906;7.248;2023-02-24T09:52:38;15.57;;;2.85;;
43670;SDS011;29267;50.906;7.248;2023-02-24T09:58:05;17.25;;;2.80;;
43670;SDS011;29267;50.906;7.248;2023-02-24T10:06:28;13.35;;;2.97;;
43670;SDS011;29267;50.906;7.248;2023-02-24T10:09:12;13.98;;;3.05;;
43670;SDS011;29267;50.906;7.248;2023-02-24T10:11:39;11.02;;;3.00;;
43670;SDS011;29267;50.906;7.248;2023-02-24T10:17:22;9.35;;;2.33;;
43670;SDS011;29267;50.906;7.248;2023-02-24T10:19:56;10.82;;;2.63;;
43670;SDS011;29267;50.906;7.248;2023-02-24T10:30:43;19.45;;;2.58;;
43670;SDS011;29267;50.906;7.248;2023-02-24T10:33:34;9.88;;;2.70;;
43670;SDS011;29267;50.906;7.248;2023-02-24T10:36:36;9.93;;;2.95;;
43670;SDS011;29267;50.906;7.248;2023-02-24T10:39:00;9.45;;;3.22;;
43670;SDS011;29267;50.906;7.248;2023-02-24T10:41:40;11.70;;;2.45;;
43670;SDS011;29267;50.906;7.248;2023-02-24T10:44:11;9.20;;;2.65;;
43670;SDS011;29267;50.906;7.248;2023-02-24T10:46:43;12.30;;;2.85;;
43670;SDS011;29267;50.906;7.248;2023-02-24T10:49:09;7.97;;;2.40;;
43670;SDS011;29267;50.906;7.248;2023-02-24T10:51:41;12.57;;;3.03;;
43670;SDS011;29267;50.906;7.248;2023-02-24T10:54:27;19.20;;;3.88;;
43670;SDS011;29267;50.906;7.248;2023-02-24T10:57:09;10.18;;;3.00;;
43670;SDS011;29267;50.906;7.248;2023-02-24T11:02:34;16.52;;;3.40;;
43670;SDS011;29267;50.906;7.248;2023-02-24T11:05:33;9.95;;;2.33;;
43670;SDS011;29267;50.906;7.248;2023-02-24T11:08:12;12.43;;;3.33;;
43670;SDS011;29267;50.906;7.248;2023-02-24T11:10:59;9.57;;;3.10;;
43670;SDS011;29267;50.906;7.248;2023-02-24T11:13:31;16.45;;;3.38;;
43670;SDS011;29267;50.906;7.248;2023-02-24T11:16:16;9.55;;;2.40;;
43670;SDS011;29267;50.906;7.248;2023-02-24T11:19:01;15.60;;;3.55;;
43670;SDS011;29267;50.906;7.248;2023-02-24T11:21:29;13.63;;;3.80;;
43670;SDS011;29267;50.906;7.248;2023-02-24T11:23:56;13.95;;;3.55;;
43670;SDS011;29267;50.906;7.248;2023-02-24T11:26:36;18.45;;;3.47;;
43670;SDS011;29267;50.906;7.248;2023-02-24T11:34:10;12.82;;;3.03;;
43670;SDS011;29267;50.906;7.248;2023-02-24T11:42:22;8.00;;;3.20;;
43670;SDS011;29267;50.906;7.248;2023-02-24T11:44:53;24.88;;;2.90;;
43670;SDS011;29267;50.906;7.248;2023-02-24T11:47:46;18.02;;;3.25;;
43670;SDS011;29267;50.906;7.248;2023-02-24T11:50:22;10.77;;;3.20;;
43670;SDS011;29267;50.906;7.248;2023-02-24T11:52:54;17.42;;;4.88;;
43670;SDS011;29267;50.906;7.248;2023-02-24T11:55:25;6.95;;;3.13;;
43670;SDS011;29267;50.906;7.248;2023-02-24T11:58:05;10.25;;;3.00;;
43670;SDS011;29267;50.906;7.248;2023-02-24T12:07:01;9.32;;;3.13;;
43670;SDS011;29267;50.906;7.248;2023-02-24T12:15:08;10.55;;;2.83;;
43670;SDS011;29267;50.906;7.248;2023-02-24T12:17:53;10.73;;;2.75;;
43670;SDS011;29267;50.906;7.248;2023-02-24T12:20:47;15.90;;;3.50;;
43670;SDS011;29267;50.906;7.248;2023-02-24T12:23:31;9.27;;;3.30;;
43670;SDS011;29267;50.906;7.248;2023-02-24T12:45:07;13.98;;;3.05;;
43670;SDS011;29267;50.906;7.248;2023-02-24T12:50:44;10.85;;;2.50;;
43670;SDS011;29267;50.906;7.248;2023-02-24T12:53:30;16.65;;;3.70;;
43670;SDS011;29267;50.906;7.248;2023-02-24T12:58:44;11.77;;;4.65;;
43670;SDS011;29267;50.906;7.248;2023-02-24T13:03:56;8.10;;;3.90;;
43670;SDS011;29267;50.906;7.248;2023-02-24T13:12:11;7.15;;;2.80;;
43670;SDS011;29267;50.906;7.248;2023-02-24T13:14:44;12.88;;;3.90;;
43670;SDS011;29267;50.906;7.248;2023-02-24T13:19:37;11.02;;;3.83;;
43670;SDS011;29267;50.906;7.248;2023-02-24T13:24:36;11.65;;;4.32;;
43670;SDS011;29267;50.906;7.248;2023-02-24T13:27:25;17.05;;;3.80;;
43670;SDS011;29267;50.906;7.248;2023-02-24T13:32:45;13.85;;;4.40;;
43670;SDS011;29267;50.906;7.248;2023-02-24T13:37:47;11.75;;;5.15;;
43670;SDS011;29267;50.906;7.248;2023-02-24T13:42:42;11.38;;;4.90;;
43670;SDS011;29267;50.906;7.248;2023-02-24T13:45:19;13.55;;;4.70;;
43670;SDS011;29267;50.906;7.248;2023-02-24T13:59:12;19.92;;;5.43;;
43670;SDS011;29267;50.906;7.248;2023-02-24T14:06:44;11.40;;;5.47;;
43670;SDS011;29267;50.906;7.248;2023-02-24T14:09:29;26.08;;;5.57;;
43670;SDS011;29267;50.906;7.248;2023-02-24T14:11:58;21.83;;;6.40;;
43670;SDS011;29267;50.906;7.248;2023-02-24T14:14:27;18.00;;;5.68;;
43670;SDS011;29267;50.906;7.248;2023-02-24T14:16:53;11.73;;;6.03;;
43670;SDS011;29267;50.906;7.248;2023-02-24T14:19:19;16.52;;;6.15;;
43670;SDS011;29267;50.906;7.248;2023-02-24T14:21:49;17.48;;;6.63;;
43670;SDS011;29267;50.906;7.248;2023-02-24T14:24:17;25.08;;;6.10;;
43670;SDS011;29267;50.906;7.248;2023-02-24T14:26:54;12.23;;;6.10;;
43670;SDS011;29267;50.906;7.248;2023-02-24T14:29:22;16.13;;;6.78;;
43670;SDS011;29267;50.906;7.248;2023-02-24T14:31:52;16.85;;;7.30;;
43670;SDS011;29267;50.906;7.248;2023-02-24T14:34:20;23.45;;;8.30;;
43670;SDS011;29267;50.906;7.248;2023-02-24T14:36:49;18.00;;;7.45;;
43670;SDS011;29267;50.906;7.248;2023-02-24T14:39:18;21.38;;;7.35;;
43670;SDS011;29267;50.906;7.248;2023-02-24T14:42:03;22.38;;;7.60;;
43670;SDS011;29267;50.906;7.248;2023-02-24T14:44:43;29.20;;;7.53;;
43670;SDS011;29267;50.906;7.248;2023-02-24T14:47:12;29.90;;;12.45;;
43670;SDS011;29267;50.906;7.248;2023-02-24T14:49:39;23.42;;;10.73;;
43670;SDS011;29267;50.906;7.248;2023-02-24T14:52:16;24.13;;;7.63;;
43670;SDS011;29267;50.906;7.248;2023-02-24T14:55:09;18.48;;;7.28;;
43670;SDS011;29267;50.906;7.248;2023-02-24T15:00:16;15.07;;;6.13;;
43670;SDS011;29267;50.906;7.248;2023-02-24T15:05:41;13.77;;;8.32;;
43670;SDS011;29267;50.906;7.248;2023-02-24T15:08:25;21.08;;;8.88;;
43670;SDS011;29267;50.906;7.248;2023-02-24T15:11:02;18.17;;;6.95;;
43670;SDS011;29267;50.906;7.248;2023-02-24T15:13:51;9.93;;;6.13;;
43670;SDS011;29267;50.906;7.248;2023-02-24T15:16:31;15.82;;;5.63;;
43670;SDS011;29267;50.906;7.248;2023-02-24T15:19:03;16.05;;;6.25;;
43670;SDS011;29267;50.906;7.248;2023-02-24T15:21:30;14.27;;;5.82;;
43670;SDS011;29267;50.906;7.248;2023-02-24T15:23:59;22.20;;;6.57;;
43670;SDS011;29267;50.906;7.248;2023-02-24T15:26:30;23.20;;;5.65;;
43670;SDS011;29267;50.906;7.248;2023-02-24T15:28:58;21.73;;;7.07;;
43670;SDS011;29267;50.906;7.248;2023-02-24T15:31:25;20.58;;;6.72;;
43670;SDS011;29267;50.906;7.248;2023-02-24T15:33:54;10.35;;;4.95;;
43670;SDS011;29267;50.906;7.248;2023-02-24T15:36:26;16.65;;;5.32;;
43670;SDS011;29267;50.906;7.248;2023-02-24T15:38:57;14.93;;;5.15;;
43670;SDS011;29267;50.906;7.248;2023-02-24T15:41:25;17.30;;;6.00;;
43670;SDS011;29267;50.906;7.248;2023-02-24T15:44:05;15.10;;;5.45;;
43670;SDS011;29267;50.906;7.248;2023-02-24T15:46:46;14.20;;;4.82;;
43670;SDS011;29267;50.906;7.248;2023-02-24T15:49:11;12.70;;;5.40;;
43670;SDS011;29267;50.906;7.248;2023-02-24T15:51:37;22.92;;;5.78;;
43670;SDS011;29267;50.906;7.248;2023-02-24T15:54:05;17.80;;;5.43;;
43670;SDS011;29267;50.906;7.248;2023-02-24T15:56:36;15.45;;;5.65;;
43670;SDS011;29267;50.906;7.248;2023-02-24T15:59:02;14.13;;;4.90;;
43670;SDS011;29267;50.906;7.248;2023-02-24T16:01:28;14.82;;;5.05;;
43670;SDS011;29267;50.906;7.248;2023-02-24T16:03:55;16.15;;;4.78;;
43670;SDS011;29267;50.906;7.248;2023-02-24T16:06:21;25.67;;;10.48;;
43670;SDS011;29267;50.906;7.248;2023-02-24T16:08:49;17.20;;;6.45;;
43670;SDS011;29267;50.906;7.248;2023-02-24T16:11:17;25.45;;;11.13;;
43670;SDS011;29267;50.906;7.248;2023-02-24T16:13:50;14.02;;;5.65;;
43670;SDS011;29267;50.906;7.248;2023-02-24T16:16:19;25.05;;;5.70;;
43670;SDS011;29267;50.906;7.248;2023-02-24T16:18:45;23.15;;;11.15;;
43670;SDS011;29267;50.906;7.248;2023-02-24T16:21:11;17.55;;;6.60;;
43670;SDS011;29267;50.906;7.248;2023-02-24T16:23:37;16.95;;;5.90;;
43670;SDS011;29267;50.906;7.248;2023-02-24T16:26:04;22.67;;;5.30;;
43670;SDS011;29267;50.906;7.248;2023-02-24T16:28:32;23.92;;;6.45;;
43670;SDS011;29267;50.906;7.248;2023-02-24T16:30:57;17.85;;;4.90;;
43670;SDS011;29267;50.906;7.248;2023-02-24T16:33:23;14.90;;;4.57;;
43670;SDS011;29267;50.906;7.248;2023-02-24T16:35:49;14.38;;;4.53;;
43670;SDS011;29267;50.906;7.248;2023-02-24T16:38:19;21.67;;;5.30;;
43670;SDS011;29267;50.906;7.248;2023-02-24T16:40:46;16.33;;;4.90;;
43670;SDS011;29267;50.906;7.248;2023-02-24T16:43:13;16.58;;;5.70;;
43670;SDS011;29267;50.906;7.248;2023-02-24T16:45:39;32.65;;;13.63;;
43670;SDS011;29267;50.906;7.248;2023-02-24T16:48:07;28.00;;;10.25;;
43670;SDS011;29267;50.906;7.248;2023-02-24T16:50:39;28.67;;;10.82;;
43670;SDS011;29267;50.906;7.248;2023-02-24T16:53:06;18.58;;;6.93;;
43670;SDS011;29267;50.906;7.248;2023-02-24T16:55:33;16.60;;;6.78;;
43670;SDS011;29267;50.906;7.248;2023-02-24T16:57:59;20.58;;;7.60;;
43670;SDS011;29267;50.906;7.248;2023-02-24T17:00:24;21.63;;;8.38;;
43670;SDS011;29267;50.906;7.248;2023-02-24T17:02:50;19.88;;;8.45;;
43670;SDS011;29267;50.906;7.248;2023-02-24T17:05:18;22.10;;;9.18;;
43670;SDS011;29267;50.906;7.248;2023-02-24T17:07:48;22.05;;;9.10;;
43670;SDS011;29267;50.906;7.248;2023-02-24T17:10:15;144.70;;;55.83;;
43670;SDS011;29267;50.906;7.248;2023-02-24T17:12:42;128.70;;;52.67;;
43670;SDS011;29267;50.906;7.248;2023-02-24T17:15:10;68.75;;;28.20;;
43670;SDS011;29267;50.906;7.248;2023-02-24T17:17:39;57.00;;;20.77;;
43670;SDS011;29267;50.906;7.248;2023-02-24T17:20:05;79.63;;;32.30;;
43670;SDS011;29267;50.906;7.248;2023-02-24T17:22:31;49.78;;;18.40;;
43670;SDS011;29267;50.906;7.248;2023-02-24T17:24:56;26.77;;;11.95;;
43670;SDS011;29267;50.906;7.248;2023-02-24T17:27:22;63.58;;;22.50;;
43670;SDS011;29267;50.906;7.248;2023-02-24T17:29:48;30.15;;;12.38;;
43670;SDS011;29267;50.906;7.248;2023-02-24T17:32:13;18.95;;;9.50;;
43670;SDS011;29267;50.906;7.248;2023-02-24T17:34:39;26.08;;;11.18;;
43670;SDS011;29267;50.906;7.248;2023-02-24T17:37:04;20.60;;;9.45;;
43670;SDS011;29267;50.906;7.248;2023-02-24T17:39:30;23.63;;;8.30;;